Time;durP1;ratioP1;P1;durP2;ratioP2;P2;SDS_P1;SDS_P2;PMS_P1;PMS_P2;Temp;Humidity;BMP_temperature;BMP_pressure;BME280_temperature;BME280_humidity;BME280_pressure;Samples;Min_cycle;Max_cycle;Signal;HPM_P1;HPM_P2
2023/03/24 00:01:42;;;;;;;5.82;5.15;;;;;;;23.89;35.33;100774.56;21085452;28;20036;-71
2023/03/24 00:11:44;;;;;;;5.60;5.07;;;;;;;23.48;35.39;100759.25;21083781;28;20036;-71
2023/03/24 00:21:45;;;;;;;6.03;5.35;;;;;;;24.01;35.29;100755.34;21083846;28;20036;-71
2023/03/24 00:31:46;;;;;;;5.32;4.82;;;;;;;23.99;35.41;100750.03;21082938;28;20479;-72
2023/03/24 00:41:48;;;;;;;6.05;5.45;;;;;;;23.98;35.65;100783.91;21081989;28;20031;-72
2023/03/24 00:51:50;;;;;;;7.53;5.32;;;;;;;23.89;35.42;100730.66;21081152;28;20048;-72
2023/03/24 01:01:51;;;;;;;5.80;5.20;;;;;;;23.98;35.48;100716.81;21080752;28;20040;-72
2023/03/24 01:11:53;;;;;;;5.55;5.05;;;;;;;23.96;35.30;100702.31;21079719;28;20044;-72
2023/03/24 01:21:54;;;;;;;6.25;5.50;;;;;;;23.94;35.48;100732.53;21078132;28;20387;-71
2023/03/24 01:31:56;;;;;;;6.53;5.57;;;;;;;23.56;35.55;100833.16;21077843;28;20552;-73
2023/03/24 01:41:57;;;;;;;6.32;5.70;;;;;;;23.93;35.29;100915.34;21077072;28;20040;-72
2023/03/24 01:52:01;;;;;;;6.22;5.63;;;;;;;23.84;35.44;100857.34;21076722;28;20048;-71
2023/03/24 02:02:05;;;;;;;5.80;5.30;;;;;;;23.66;35.47;100743.63;21076463;28;20051;-71
2023/03/24 02:12:06;;;;;;;9.05;5.50;;;;;;;23.88;35.57;100862.31;21072980;28;20384;-67
2023/03/24 02:22:34;;;;;;;7.65;5.60;;;;;;;23.85;35.64;100863.75;21075386;28;20044;-68
2023/03/24 02:33:16;;;;;;;7.07;5.70;;;;;;;23.79;36.60;100865.78;21067286;28;20097;-67
2023/03/24 02:43:41;;;;;;;6.45;5.65;;;;;;;23.80;36.37;100873.03;21087554;28;20044;-67
2023/03/24 02:54:08;;;;;;;9.32;5.85;;;;;;;23.81;35.81;100868.28;21089826;28;20089;-68
2023/03/24 03:04:18;;;;;;;6.72;5.55;;;;;;;23.85;35.65;100813.44;21090204;28;20048;-68
2023/03/24 03:14:47;;;;;;;11.90;5.32;;;;;;;23.80;35.44;100811.56;21089805;28;20032;-68
2023/03/24 03:24:53;;;;;;;11.27;5.88;;;;;;;23.59;35.53;100743.13;21088581;28;20364;-67
2023/03/24 03:35:13;;;;;;;15.85;5.97;;;;;;;23.53;35.93;100749.94;21082379;28;20032;-67
2023/03/24 03:45:15;;;;;;;22.25;5.90;;;;;;;23.81;36.18;100790.88;21086021;28;20033;-67
2023/03/24 03:55:20;;;;;;;13.88;6.15;;;;;;;23.80;35.91;100828.34;21085782;28;20483;-67
2023/03/24 04:05:34;;;;;;;15.00;5.95;;;;;;;23.77;35.99;100834.50;21084274;28;20400;-66
2023/03/24 04:15:41;;;;;;;17.15;6.47;;;;;;;23.80;36.05;100869.41;21083316;28;20376;-67
2023/03/24 04:25:48;;;;;;;14.20;6.22;;;;;;;23.79;35.87;100856.59;21084003;28;20471;-67
2023/03/24 04:36:00;;;;;;;11.30;5.53;;;;;;;23.41;36.14;100819.38;21083408;28;20044;-66
2023/03/24 04:46:07;;;;;;;10.48;6.13;;;;;;;23.46;36.02;100732.72;21082302;28;20113;-67
2023/03/24 04:56:36;;;;;;;12.02;6.20;;;;;;;23.74;36.17;100851.06;21081068;28;20074;-67
2023/03/24 05:06:37;;;;;;;;;;;;;;;23.78;36.10;100880.91;21080872;28;20093;-67
2023/03/24 05:16:41;;;;;;;7.65;5.72;;;;;;;23.81;35.95;100863.50;21079711;28;19919;-67
2023/03/24 05:26:43;;;;;;;9.95;5.57;;;;;;;23.52;35.92;100874.81;21079024;28;20039;-67
2023/03/24 05:36:47;;;;;;;10.65;6.10;;;;;;;23.71;36.15;100897.19;21078356;28;20044;-68
2023/03/24 05:46:48;;;;;;;9.63;5.80;;;;;;;23.76;36.28;100888.75;21077873;28;20410;-68
2023/03/24 05:56:50;;;;;;;7.53;6.10;;;;;;;23.75;36.40;100920.63;21077153;28;20044;-67
2023/03/24 06:06:54;;;;;;;8.70;5.93;;;;;;;23.68;36.41;100889.41;21073736;28;20044;-67
2023/03/24 06:16:58;;;;;;;6.63;5.28;;;;;;;23.47;36.67;100879.63;20993163;28;20488;-68
2023/03/24 06:27:01;;;;;;;6.95;5.22;;;;;;;23.68;36.51;100942.50;20992132;28;20162;-67
2023/03/24 06:37:02;;;;;;;8.05;5.88;;;;;;;23.17;36.22;100864.94;20992111;28;20044;-67
2023/03/24 06:47:04;;;;;;;7.22;5.30;;;;;;;23.70;36.58;100990.53;20991159;28;20086;-67
2023/03/24 06:57:06;;;;;;;7.60;5.25;;;;;;;23.69;36.61;100988.88;20991471;28;20381;-67
2023/03/24 07:07:09;;;;;;;7.32;5.15;;;;;;;23.68;36.55;100969.59;20991010;28;20384;-67
2023/03/24 07:17:10;;;;;;;5.80;5.07;;;;;;;23.68;36.64;100983.56;20992565;28;20037;-67
2023/03/24 07:27:12;;;;;;;5.57;4.70;;;;;;;23.63;36.49;100990.03;21005106;28;20052;-66
2023/03/24 07:37:16;;;;;;;7.13;5.18;;;;;;;23.65;36.53;101012.97;21003927;28;20480;-68
2023/03/24 07:47:20;;;;;;;6.53;5.20;;;;;;;23.50;36.29;100971.19;21003405;28;20214;-68
2023/03/24 07:57:22;;;;;;;7.53;4.50;;;;;;;23.63;36.56;101001.19;21002668;28;20037;-67
2023/03/24 08:07:23;;;;;;;5.63;4.50;;;;;;;23.57;36.39;100991.22;21004286;28;20036;-68
2023/03/24 08:17:25;;;;;;;6.28;5.10;;;;;;;23.61;36.69;101020.22;21084742;28;20471;-68
2023/03/24 08:27:29;;;;;;;4.60;4.20;;;;;;;23.58;36.34;101041.19;21083509;28;20093;-67
2023/03/24 08:37:30;;;;;;;5.00;4.50;;;;;;;22.72;36.33;100914.50;21083524;28;20040;-67
2023/03/24 08:47:32;;;;;;;3.83;3.53;;;;;;;23.58;36.38;101071.09;21082491;28;20040;-68
2023/03/24 08:57:39;;;;;;;4.75;3.70;;;;;;;21.01;36.61;100612.81;21081363;28;20048;-67
2023/03/24 09:07:44;;;;;;;4.27;3.87;;;;;;;23.50;36.53;101043.81;21081000;28;20105;-67
2023/03/24 09:17:46;;;;;;;5.25;3.90;;;;;;;23.52;36.47;101089.03;21080639;28;20445;-68
2023/03/24 09:27:47;;;;;;;4.40;3.47;;;;;;;23.49;36.49;101084.03;21079549;28;20036;-68
2023/03/24 09:37:49;;;;;;;4.70;3.80;;;;;;;23.48;36.35;101111.16;21078612;28;20047;-67
2023/03/24 09:48:06;;;;;;;3.85;3.40;;;;;;;23.24;36.46;101057.22;21077124;28;20089;-68
2023/03/24 09:58:11;;;;;;;4.05;3.35;;;;;;;23.33;36.49;101053.50;21078104;28;20109;-67
2023/03/24 10:08:31;;;;;;;3.90;3.35;;;;;;;23.42;36.25;101122.66;21074656;28;20136;-67
2023/03/24 10:18:44;;;;;;;3.13;2.83;;;;;;;23.39;36.26;101120.44;21074253;28;20486;-67
2023/03/24 10:29:06;;;;;;;3.28;2.97;;;;;;;23.39;36.21;101121.28;21073796;28;20073;-67
2023/03/24 10:39:21;;;;;;;3.20;2.90;;;;;;;23.30;36.44;101126.66;21067014;28;20085;-66
2023/03/24 10:49:23;;;;;;;23.05;4.47;;;;;;;23.40;36.67;101120.16;21074525;28;20047;-66
2023/03/24 10:59:57;;;;;;;15.65;3.42;;;;;;;23.34;36.92;101111.00;21089767;28;20044;-68
2023/03/24 11:10:07;;;;;;;5.65;2.45;;;;;;;23.35;36.70;101117.41;21087015;28;20052;-68
2023/03/24 11:20:39;;;;;;;6.32;2.15;;;;;;;23.36;36.20;101140.56;21019289;28;20041;-68
2023/03/24 11:31:10;;;;;;;3.75;2.03;;;;;;;23.39;36.47;101224.59;21072350;28;20129;-68
2023/03/24 11:41:20;;;;;;;2.17;1.75;;;;;;;23.48;36.18;101208.06;21087416;28;20090;-68
2023/03/24 11:51:44;;;;;;;4.32;2.00;;;;;;;23.42;36.26;101248.34;21085051;28;20368;-69
2023/03/24 12:01:54;;;;;;;5.55;1.70;;;;;;;23.31;36.35;101250.34;21085811;28;20101;-69
2023/03/24 12:12:20;;;;;;;5.70;1.50;;;;;;;23.55;36.53;101273.66;21084992;28;20566;-69
2023/03/24 12:22:45;;;;;;;1.92;1.20;;;;;;;23.60;36.05;101295.13;21083913;28;20399;-69
2023/03/24 12:32:58;;;;;;;3.05;1.30;;;;;;;23.63;36.41;101332.81;21082821;28;20036;-69
2023/03/24 12:43:11;;;;;;;1.73;1.40;;;;;;;23.64;36.28;101338.16;21082905;28;20024;-69
2023/03/24 12:53:52;;;;;;;3.05;1.30;;;;;;;23.60;36.71;101359.38;21081282;28;20070;-69
2023/03/24 13:04:20;;;;;;;2.55;1.40;;;;;;;23.58;37.03;101372.78;21081000;28;20537;-69
2023/03/24 13:14:33;;;;;;;1.60;1.07;;;;;;;23.54;36.97;101354.94;21079764;28;20032;-69
2023/03/24 13:24:34;;;;;;;1.70;0.98;;;;;;;23.52;36.85;101330.09;21079198;28;20040;-69
2023/03/24 13:34:54;;;;;;;1.65;1.23;;;;;;;23.47;37.09;101365.63;21077998;28;20407;-69
2023/03/24 13:44:59;;;;;;;1.48;1.05;;;;;;;23.48;36.86;101392.41;21077832;28;20380;-69
2023/03/24 13:55:08;;;;;;;1.67;1.10;;;;;;;23.48;36.64;101396.03;21077406;28;20109;-69
2023/03/24 14:05:51;;;;;;;1.45;1.10;;;;;;;23.17;36.45;101383.34;21076720;28;20487;-69
2023/03/24 14:15:58;;;;;;;2.00;1.20;;;;;;;23.36;36.56;101444.97;21076270;28;20040;-69
2023/03/24 14:26:00;;;;;;;2.70;1.53;;;;;;;23.47;36.64;101449.41;21078080;28;20040;-68
2023/03/24 14:36:05;;;;;;;0.70;0.70;;;;;;;23.49;36.61;101430.38;21092822;28;20093;-68
2023/03/24 14:46:21;;;;;;;1.25;1.15;;;;;;;23.48;36.41;101400.78;21091935;28;20044;-68
2023/03/24 14:56:27;;;;;;;1.55;1.08;;;;;;;23.49;36.38;101424.81;21090848;28;20097;-68
2023/03/24 15:06:28;;;;;;;1.45;1.00;;;;;;;23.53;36.58;101432.31;21089793;28;20073;-68
2023/03/24 15:16:33;;;;;;;2.45;1.30;;;;;;;23.53;36.19;101462.22;21089585;28;20047;-68
2023/03/24 15:26:34;;;;;;;1.55;1.15;;;;;;;23.54;36.25;101472.25;21088519;28;20044;-69
2023/03/24 15:36:45;;;;;;;1.35;0.90;;;;;;;23.43;36.44;101465.06;21086749;28;20033;-68
2023/03/24 15:46:48;;;;;;;1.77;1.13;;;;;;;23.56;36.08;101509.16;21086546;28;20443;-68
2023/03/24 15:57:01;;;;;;;1.25;1.15;;;;;;;20.02;36.34;101012.72;21085828;28;20098;-68
2023/03/24 16:07:05;;;;;;;1.35;1.20;;;;;;;23.56;36.11;101475.63;21085624;28;20052;-68
2023/03/24 16:17:08;;;;;;;1.58;1.38;;;;;;;22.17;35.75;101242.75;21084316;28;20340;-68
2023/03/24 16:27:13;;;;;;;1.92;1.35;;;;;;;23.59;35.83;101419.16;21083459;28;20483;-68
2023/03/24 16:37:14;;;;;;;1.42;1.23;;;;;;;23.59;36.00;101349.31;21083012;28;20040;-68
2023/03/24 16:47:16;;;;;;;1.67;1.50;;;;;;;23.56;35.59;101352.72;21081906;28;20055;-68
2023/03/24 16:57:17;;;;;;;3.70;1.35;;;;;;;23.37;35.83;101415.91;21080855;28;20101;-68
2023/03/24 17:07:19;;;;;;;2.97;1.60;;;;;;;23.53;35.46;101434.28;21080947;28;20043;-69
2023/03/24 17:17:20;;;;;;;1.75;1.60;;;;;;;23.49;35.25;101464.75;21079635;28;20040;-68
2023/03/24 17:27:22;;;;;;;3.35;1.65;;;;;;;23.43;35.39;101456.69;21079008;28;20040;-69
2023/03/24 17:37:24;;;;;;;2.78;1.88;;;;;;;23.48;35.48;101465.03;21078235;28;20471;-69
2023/03/24 17:47:26;;;;;;;2.78;1.70;;;;;;;23.47;35.24;101404.72;21077753;28;20040;-69
2023/03/24 17:57:27;;;;;;;2.42;1.75;;;;;;;23.01;35.67;101368.63;21077949;28;20070;-69
2023/03/24 18:07:28;;;;;;;2.17;1.70;;;;;;;23.15;35.55;101385.59;21076190;28;20044;-69
2023/03/24 18:17:39;;;;;;;2.22;1.75;;;;;;;23.32;35.75;101445.56;21076511;28;20090;-68
2023/03/24 18:27:43;;;;;;;2.55;1.83;;;;;;;23.17;35.56;101411.25;21075551;28;20183;-67
2023/03/24 18:37:45;;;;;;;2.42;2.13;;;;;;;23.20;35.18;101394.78;21075144;28;20073;-68
2023/03/24 18:47:49;;;;;;;6.75;1.85;;;;;;;23.35;35.30;101430.16;21075753;28;20089;-68
2023/03/24 18:57:53;;;;;;;1.90;1.70;;;;;;;23.31;35.13;101443.03;21075355;28;20554;-69
2023/03/24 19:07:54;;;;;;;3.33;2.00;;;;;;;23.32;35.03;101448.34;21074733;28;20473;-69
2023/03/24 19:17:58;;;;;;;2.03;1.83;;;;;;;23.31;35.35;101426.28;21086021;28;20105;-69
2023/03/24 19:28:00;;;;;;;2.20;2.00;;;;;;;23.24;35.15;101434.13;21088866;28;20061;-69
2023/03/24 19:38:13;;;;;;;4.07;1.95;;;;;;;23.24;35.21;101439.72;21087923;28;20048;-69
2023/03/24 19:48:15;;;;;;;4.72;2.35;;;;;;;23.19;35.03;101412.66;21087434;28;20040;-69
2023/03/24 19:58:17;;;;;;;1.90;1.70;;;;;;;23.20;35.29;101428.28;21086038;28;20048;-69
2023/03/24 20:08:19;;;;;;;2.08;1.75;;;;;;;23.03;35.10;101411.03;21085519;28;20024;-69
2023/03/24 20:18:20;;;;;;;1.90;1.70;;;;;;;23.13;34.85;101432.50;21085347;28;20044;-69
2023/03/24 20:28:24;;;;;;;1.60;1.50;;;;;;;23.18;34.71;101430.50;21083828;28;20040;-68
2023/03/24 20:38:29;;;;;;;2.55;2.00;;;;;;;22.86;34.96;101354.66;21083413;28;20054;-69
2023/03/24 20:48:31;;;;;;;2.55;1.92;;;;;;;23.11;34.88;101385.31;21082607;28;20048;-68
2023/03/24 20:58:37;;;;;;;3.63;2.00;;;;;;;22.72;34.84;101327.38;21081734;28;20129;-68
2023/03/24 21:08:40;;;;;;;2.15;1.70;;;;;;;22.91;34.97;101379.78;21080545;28;20078;-69
2023/03/24 21:18:41;;;;;;;2.33;2.00;;;;;;;23.02;34.93;101432.53;21077624;28;20040;-72
2023/03/24 21:28:44;;;;;;;3.50;2.20;;;;;;;22.77;35.04;101369.22;21079079;28;20081;-72
2023/03/24 21:38:48;;;;;;;2.30;1.88;;;;;;;22.67;34.58;101380.38;21077615;28;20433;-71
2023/03/24 21:48:51;;;;;;;2.15;1.70;;;;;;;22.38;34.73;101318.81;21077023;28;20055;-73
2023/03/24 21:58:53;;;;;;;2.47;1.90;;;;;;;22.86;34.79;101430.00;21072347;28;20503;-70
2023/03/24 22:08:57;;;;;;;6.20;2.33;;;;;;;22.92;34.92;101454.88;21074316;28;20036;-71
2023/03/24 22:19:00;;;;;;;8.77;2.05;;;;;;;22.59;34.93;101428.41;21071444;28;20078;-72
2023/03/24 22:29:04;;;;;;;7.90;2.55;;;;;;;22.84;34.40;101481.38;21075218;28;20056;-72
2023/03/24 22:39:08;;;;;;;5.28;2.42;;;;;;;23.00;34.63;101523.22;21076229;28;20036;-72
2023/03/24 22:49:10;;;;;;;5.25;2.53;;;;;;;22.97;34.68;101515.44;21080151;28;20036;-71
2023/03/24 22:59:11;;;;;;;2.78;1.92;;;;;;;22.97;34.66;101543.34;21091312;28;20047;-72
2023/03/24 23:09:16;;;;;;;2.88;2.10;;;;;;;22.92;34.72;101538.59;21090081;28;20036;-71
2023/03/24 23:19:18;;;;;;;6.13;2.60;;;;;;;22.89;34.49;101530.78;21087665;28;20368;-72
2023/03/24 23:29:19;;;;;;;3.50;2.25;;;;;;;22.13;34.51;101402.47;21088803;28;20040;-72
2023/03/24 23:39:21;;;;;;;3.42;1.83;;;;;;;22.86;34.40;101547.22;21088138;28;20415;-73
2023/03/24 23:49:22;;;;;;;5.30;2.30;;;;;;;22.81;34.57;101565.63;21086348;28;20040;-72
2023/03/24 23:59:26;;;;;;;3.85;2.10;;;;;;;22.67;34.41;101558.94;21083170;28;20055;-73
